KBLI/BLI METAR and TAF weather

Enter ICAO airport designator
Station Type Date Time Source
KBLI METAR 2020/03/29 11:02 UTC NOAA

KBLI 291102Z AUTO 17006KT 7SM -RA SCT003 OVC014 08/06 A2976 RMK AO2 P0001 T00780061 $


Station Type Date Time Source
KBLI Decoded METAR 2020/03/29 11:02 UTC NOAA

BELLINGHAM INTERNATIONAL AIRPORT, WA, United States (KBLI) 48-48N 122-32W 50M
Mar 29, 2020 - 07:02 AM EDT / 2020.03.29 1102 UTC
Wind: from the S (170 degrees) at 7 MPH (6 KT):0
Visibility: 7 mile(s):0
Sky conditions: overcast
Weather: light rain
Precipitation last hour: 0.01 inches
Temperature: 46.0 F (7.8 C)
Dew Point: 43.0 F (6.1 C)
Relative Humidity: 88%
Pressure (altimeter): 29.76 in. Hg (1007 hPa)
ob: KBLI 291102Z AUTO 17006KT 7SM -RA SCT003 OVC014 08/06 A2976 RMK AO2 P0001 T00780061
cycle: 11

Station Type Date Time Source
KBLI TAF 2020/03/29 06:24 UTC NOAA

TAF KBLI 290520Z 2906/3006 19007KT 3SM -RA BR SCT006 OVC012
FM290800 17011G18KT P6SM -RA OVC020
FM291500 17009KT 6SM -RA OVC015
FM292200 16012G19KT 4SM -RA OVC015

Example: see airport list